Time;durP1;ratioP1;P1;durP2;ratioP2;P2;SDS_P1;SDS_P2;PMS_P1;PMS_P2;Temp;Humidity;BMP_temperature;BMP_pressure;BME280_temperature;BME280_humidity;BME280_pressure;Samples;Min_cycle;Max_cycle;Signal;HPM_P1;HPM_P2
2021/10/13 00:01:08;;;;;;;8.50;1.20;;;8.30;99.90;;;;;;5082001;27;20052;-81
2021/10/13 00:03:34;;;;;;;9.63;1.10;;;8.30;99.90;;;;;;5128916;27;20082;-82
2021/10/13 00:05:59;;;;;;;8.68;1.05;;;8.30;99.90;;;;;;5099046;28;20124;-81
2021/10/13 00:08:25;;;;;;;8.68;0.98;;;8.40;99.90;;;;;;5092386;27;20042;-81
2021/10/13 00:10:51;;;;;;;7.38;0.90;;;8.40;99.90;;;;;;5128368;27;20558;-82
2021/10/13 00:13:17;;;;;;;8.45;1.00;;;8.40;99.90;;;;;;5097900;28;20039;-82
2021/10/13 00:15:44;;;;;;;5.97;1.25;;;8.40;99.90;;;;;;5109438;28;20086;-81
2021/10/13 00:18:10;;;;;;;14.40;2.20;;;8.50;99.90;;;;;;5087414;27;20450;-81
2021/10/13 00:20:36;;;;;;;8.07;0.98;;;8.50;99.90;;;;;;5127098;27;20123;-81
2021/10/13 00:23:02;;;;;;;9.32;1.45;;;8.40;99.90;;;;;;5089122;28;20082;-82
2021/10/13 00:25:28;;;;;;;6.38;1.35;;;8.40;99.90;;;;;;5126353;27;20071;-82
2021/10/13 00:27:54;;;;;;;5.63;0.90;;;8.40;99.90;;;;;;5116139;27;20035;-81
2021/10/13 00:30:20;;;;;;;4.38;1.00;;;8.40;99.90;;;;;;5111932;27;20098;-82
2021/10/13 00:32:46;;;;;;;12.65;1.10;;;8.40;99.90;;;;;;5122825;27;20043;-81
2021/10/13 00:35:12;;;;;;;5.55;0.95;;;8.40;99.90;;;;;;5112579;27;20107;-82
2021/10/13 00:37:38;;;;;;;7.40;0.80;;;8.40;99.90;;;;;;5125800;27;20118;-81
2021/10/13 00:40:06;;;;;;;2.63;0.68;;;8.40;99.90;;;;;;5108588;28;20040;-82
2021/10/13 00:42:32;;;;;;;6.18;0.90;;;8.40;99.90;;;;;;5127656;27;20130;-81
2021/10/13 00:44:58;;;;;;;7.53;1.02;;;8.40;99.90;;;;;;5129418;27;20135;-81
2021/10/13 00:47:24;;;;;;;4.15;0.85;;;8.50;99.90;;;;;;5096493;28;20043;-81
2021/10/13 00:49:50;;;;;;;7.18;1.15;;;8.50;99.90;;;;;;5091609;28;20335;-81
2021/10/13 00:52:18;;;;;;;6.65;1.13;;;8.50;99.90;;;;;;5107564;27;20047;-81
2021/10/13 00:54:45;;;;;;;9.85;1.30;;;8.50;99.90;;;;;;5113845;27;20466;-81
2021/10/13 00:57:11;;;;;;;11.38;1.83;;;8.50;99.90;;;;;;5086570;28;20051;-81
2021/10/13 00:59:37;;;;;;;13.25;1.67;;;8.50;99.90;;;;;;5109278;27;20501;-82
2021/10/13 01:02:06;;;;;;;14.20;1.80;;;8.60;99.90;;;;;;5124395;27;20055;-81
2021/10/13 01:04:45;;;;;;;8.63;1.23;;;8.60;99.90;;;;;;5100815;27;20063;-81
2021/10/13 01:07:18;;;;;;;12.15;1.30;;;8.70;99.90;;;;;;5070265;28;20036;-81
2021/10/13 01:10:10;;;;;;;13.35;1.60;;;8.70;99.90;;;;;;5093271;27;20154;-81
2021/10/13 01:12:59;;;;;;;12.65;1.45;;;8.70;99.90;;;;;;5073281;28;20048;-81
2021/10/13 01:16:09;;;;;;;14.68;1.40;;;8.80;99.90;;;;;;5107388;27;20040;-81
2021/10/13 01:18:52;;;;;;;13.02;1.50;;;8.90;99.90;;;;;;5092120;27;20050;-82
2021/10/13 01:21:48;;;;;;;8.65;1.50;;;9.00;99.90;;;;;;5106928;28;20486;-81
2021/10/13 01:24:55;;;;;;;8.10;1.00;;;9.00;99.90;;;;;;5092736;27;20047;-82
2021/10/13 01:27:38;;;;;;;12.98;1.17;;;9.00;99.90;;;;;;5097158;28;20096;-82
2021/10/13 01:30:06;;;;;;;13.40;1.58;;;9.10;99.90;;;;;;5091939;28;20058;-82
2021/10/13 01:32:36;;;;;;;18.85;1.88;;;9.00;99.90;;;;;;5091328;28;20467;-81
2021/10/13 01:35:05;;;;;;;12.15;1.40;;;9.00;99.90;;;;;;5091120;28;20048;-81
2021/10/13 01:37:45;;;;;;;8.85;1.20;;;9.00;99.90;;;;;;5141329;27;20048;-81
2021/10/13 01:40:15;;;;;;;7.88;1.40;;;9.00;99.90;;;;;;5115658;27;20036;-81
2021/10/13 01:42:43;;;;;;;8.48;1.20;;;9.00;99.90;;;;;;5102819;27;20043;-82
2021/10/13 01:45:09;;;;;;;10.82;1.30;;;9.00;99.90;;;;;;5086668;28;20135;-81
2021/10/13 01:47:36;;;;;;;14.95;1.40;;;9.00;99.90;;;;;;5089301;28;20063;-82
2021/10/13 01:50:03;;;;;;;8.70;1.40;;;9.00;99.90;;;;;;5098425;27;20051;-81
2021/10/13 01:52:30;;;;;;;9.77;1.23;;;9.10;99.90;;;;;;5103339;28;20043;-81
2021/10/13 01:54:59;;;;;;;7.07;1.30;;;9.10;99.90;;;;;;5095727;27;20398;-81
2021/10/13 01:57:27;;;;;;;13.80;1.33;;;9.10;99.90;;;;;;5090122;28;20044;-81
2021/10/13 01:59:56;;;;;;;8.68;1.00;;;9.20;99.90;;;;;;5093563;28;20142;-81
2021/10/13 02:02:30;;;;;;;9.00;1.17;;;9.20;99.90;;;;;;5091926;28;20050;-82
2021/10/13 02:04:58;;;;;;;6.93;0.90;;;9.30;99.90;;;;;;5106439;28;20036;-81
2021/10/13 02:07:26;;;;;;;8.50;0.90;;;9.30;99.90;;;;;;5104092;27;20058;-82
2021/10/13 02:09:54;;;;;;;7.78;1.30;;;9.30;99.90;;;;;;5068751;28;20071;-82
2021/10/13 02:12:22;;;;;;;7.57;1.73;;;9.40;99.90;;;;;;5079511;28;20051;-81
2021/10/13 02:14:48;;;;;;;8.98;1.17;;;9.40;99.90;;;;;;5124005;27;20051;-82
2021/10/13 02:17:15;;;;;;;8.95;0.93;;;9.40;99.90;;;;;;5099701;28;20043;-82
2021/10/13 02:19:42;;;;;;;7.15;0.93;;;9.40;99.90;;;;;;5084771;28;20066;-81
2021/10/13 02:22:08;;;;;;;5.07;0.70;;;9.30;99.90;;;;;;5109528;27;20143;-82
2021/10/13 02:24:41;;;;;;;9.77;1.48;;;9.30;99.90;;;;;;5121770;27;20399;-82
2021/10/13 02:27:24;;;;;;;7.35;1.83;;;9.30;99.90;;;;;;5128118;27;20054;-81
2021/10/13 02:29:50;;;;;;;7.78;1.02;;;9.40;99.90;;;;;;5107237;28;20040;-82
2021/10/13 02:32:16;;;;;;;10.32;1.10;;;9.40;99.90;;;;;;5092459;28;20043;-82
2021/10/13 02:34:42;;;;;;;8.00;1.08;;;9.40;99.90;;;;;;5089889;28;20701;-82
2021/10/13 02:37:09;;;;;;;7.63;0.98;;;9.40;99.90;;;;;;5091478;28;20039;-82
2021/10/13 02:39:35;;;;;;;9.35;1.20;;;9.40;99.90;;;;;;5106898;28;20040;-81
2021/10/13 02:42:04;;;;;;;4.57;0.70;;;9.40;99.90;;;;;;5090771;28;20039;-81
2021/10/13 02:44:30;;;;;;;10.73;0.98;;;9.40;99.90;;;;;;5079380;28;20131;-82
2021/10/13 02:47:00;;;;;;;12.25;1.20;;;9.40;99.90;;;;;;5088947;28;20219;-81
2021/10/13 02:49:35;;;;;;;9.18;1.13;;;9.30;99.90;;;;;;5088769;28;20043;-81
2021/10/13 02:52:20;;;;;;;7.47;0.77;;;9.30;99.90;;;;;;5087283;28;20040;-81
2021/10/13 02:54:55;;;;;;;8.80;1.58;;;9.30;99.90;;;;;;5092492;28;20495;-81
2021/10/13 02:57:25;;;;;;;9.57;1.05;;;9.30;99.90;;;;;;5095008;27;20105;-81
2021/10/13 02:59:52;;;;;;;10.13;0.98;;;9.20;99.90;;;;;;5090482;28;20071;-81
2021/10/13 03:02:27;;;;;;;8.52;1.15;;;9.30;99.90;;;;;;5093587;27;20464;-82
2021/10/13 03:04:58;;;;;;;5.25;0.88;;;9.30;99.90;;;;;;5090288;28;20032;-82
2021/10/13 03:07:28;;;;;;;7.43;0.95;;;9.30;99.90;;;;;;5092728;27;20119;-82
2021/10/13 03:10:01;;;;;;;5.57;1.08;;;9.40;99.90;;;;;;5090065;28;20036;-81
2021/10/13 03:12:41;;;;;;;5.82;0.90;;;9.40;99.90;;;;;;5091150;27;20502;-82
2021/10/13 03:15:09;;;;;;;8.73;1.13;;;9.40;99.90;;;;;;5088999;28;20480;-82
2021/10/13 03:17:36;;;;;;;6.68;1.10;;;9.40;99.90;;;;;;5091403;27;20131;-81
2021/10/13 03:20:03;;;;;;;11.27;2.78;;;9.30;99.90;;;;;;5075503;28;20121;-81
2021/10/13 03:22:30;;;;;;;7.43;1.60;;;9.30;99.90;;;;;;5109547;28;20048;-81
2021/10/13 03:24:56;;;;;;;6.57;0.88;;;9.30;99.90;;;;;;5093576;28;20491;-82
2021/10/13 03:27:26;;;;;;;4.45;0.73;;;9.20;99.90;;;;;;5086196;28;20137;-81
2021/10/13 03:29:52;;;;;;;4.43;0.88;;;9.20;99.90;;;;;;5108559;27;20052;-82
2021/10/13 03:32:19;;;;;;;7.90;1.05;;;9.20;99.90;;;;;;5064066;27;20393;-81
2021/10/13 03:34:45;;;;;;;6.22;1.20;;;9.10;99.90;;;;;;5091494;27;20157;-81
2021/10/13 03:37:14;;;;;;;6.25;1.00;;;9.00;99.90;;;;;;5088871;28;20130;-82
2021/10/13 03:39:40;;;;;;;10.23;1.83;;;9.00;99.90;;;;;;5088851;27;20857;-81
2021/10/13 03:42:07;;;;;;;13.32;1.45;;;8.90;99.90;;;;;;5088478;28;20036;-82
2021/10/13 03:44:33;;;;;;;12.93;1.60;;;8.90;99.90;;;;;;5092853;27;20624;-81
2021/10/13 03:46:59;;;;;;;8.35;0.90;;;8.90;99.90;;;;;;5060006;28;20127;-82
2021/10/13 03:49:24;;;;;;;5.70;0.90;;;8.90;99.90;;;;;;5103007;27;20148;-81
2021/10/13 03:51:50;;;;;;;3.97;0.75;;;8.80;99.90;;;;;;5058621;28;20036;-81
2021/10/13 03:54:16;;;;;;;6.60;0.95;;;8.80;99.90;;;;;;5091984;28;20042;-81
2021/10/13 03:56:41;;;;;;;9.73;0.88;;;8.80;99.90;;;;;;5105427;28;20040;-82
2021/10/13 03:59:07;;;;;;;12.23;2.08;;;8.80;99.90;;;;;;5100516;27;20031;-81
2021/10/13 04:01:33;;;;;;;4.28;0.82;;;8.90;99.90;;;;;;5069923;28;20044;-80
2021/10/13 04:03:59;;;;;;;10.90;1.25;;;8.80;99.90;;;;;;5141233;27;20039;-81
2021/10/13 04:06:24;;;;;;;5.00;0.82;;;8.90;99.90;;;;;;5074724;28;20048;-81
2021/10/13 04:08:50;;;;;;;7.60;1.15;;;8.80;99.90;;;;;;5108811;28;20043;-81
2021/10/13 04:11:16;;;;;;;8.43;0.88;;;8.80;99.90;;;;;;5090030;27;20548;-82
2021/10/13 04:13:44;;;;;;;5.72;0.80;;;8.80;99.90;;;;;;5088367;27;20042;-81
2021/10/13 04:16:09;;;;;;;8.80;1.00;;;8.80;99.90;;;;;;5118530;27;20047;-81
2021/10/13 04:18:35;;;;;;;12.27;1.08;;;8.80;99.90;;;;;;5091488;28;20042;-81
2021/10/13 04:21:01;;;;;;;8.35;0.93;;;8.80;99.90;;;;;;5094349;27;20713;-81
2021/10/13 04:23:27;;;;;;;6.95;0.90;;;8.80;99.90;;;;;;5129575;27;20475;-81
2021/10/13 04:25:53;;;;;;;7.45;1.08;;;8.80;99.90;;;;;;5100325;27;20036;-81
2021/10/13 04:28:18;;;;;;;14.02;1.58;;;8.70;99.90;;;;;;5087789;28;20491;-81
2021/10/13 04:30:44;;;;;;;11.60;1.73;;;8.80;99.90;;;;;;5072551;28;20048;-81
2021/10/13 04:33:10;;;;;;;12.55;1.13;;;8.70;99.90;;;;;;5070538;28;20042;-81
2021/10/13 04:35:35;;;;;;;9.98;1.00;;;8.80;99.90;;;;;;5074383;28;20040;-81
2021/10/13 04:38:05;;;;;;;10.50;1.00;;;8.70;99.90;;;;;;5072169;28;20127;-81
2021/10/13 04:40:32;;;;;;;5.40;0.98;;;8.80;99.90;;;;;;5107512;27;20128;-81
2021/10/13 04:42:58;;;;;;;5.53;0.82;;;8.70;99.90;;;;;;5107992;28;20101;-81
2021/10/13 04:45:25;;;;;;;10.93;1.13;;;8.80;99.90;;;;;;5091981;27;20402;-81
2021/10/13 04:47:51;;;;;;;12.20;1.27;;;8.80;99.90;;;;;;5102473;28;20501;-81
2021/10/13 04:50:16;;;;;;;7.60;1.23;;;8.80;99.90;;;;;;5098688;27;20040;-81
2021/10/13 04:52:42;;;;;;;5.30;0.90;;;8.90;99.90;;;;;;5096422;27;20570;-81
2021/10/13 04:55:09;;;;;;;3.53;0.95;;;8.90;99.90;;;;;;5112749;27;20785;-81
2021/10/13 04:57:35;;;;;;;7.57;0.95;;;9.00;99.90;;;;;;5093991;27;20411;-81
2021/10/13 05:00:02;;;;;;;7.55;1.23;;;9.10;99.90;;;;;;5083402;28;20040;-81
2021/10/13 05:02:27;;;;;;;6.82;0.70;;;9.20;99.90;;;;;;5106922;27;20028;-81
2021/10/13 05:04:53;;;;;;;9.82;1.58;;;9.20;99.90;;;;;;5071673;28;20521;-83
2021/10/13 05:07:19;;;;;;;6.70;0.75;;;9.30;99.90;;;;;;5092043;28;20123;-83
2021/10/13 05:09:45;;;;;;;1.83;0.40;;;9.30;99.90;;;;;;5070466;28;20050;-85
2021/10/13 05:12:10;;;;;;;4.57;0.50;;;9.40;99.90;;;;;;5064667;28;20082;-85
2021/10/13 05:14:36;;;;;;;5.15;0.65;;;9.50;99.90;;;;;;5057744;28;20054;-85
2021/10/13 05:17:02;;;;;;;6.13;0.63;;;9.60;99.90;;;;;;5087773;28;20055;-83
2021/10/13 05:19:27;;;;;;;3.75;0.50;;;9.60;99.90;;;;;;5106484;28;20119;-84
2021/10/13 05:21:53;;;;;;;5.07;1.13;;;9.60;99.90;;;;;;5088148;28;20406;-84
2021/10/13 05:24:19;;;;;;;5.68;0.60;;;9.60;99.90;;;;;;5109010;27;20039;-84
2021/10/13 05:26:44;;;;;;;6.57;0.52;;;9.70;99.90;;;;;;5072452;28;20051;-84
2021/10/13 05:29:10;;;;;;;8.18;1.20;;;9.70;99.90;;;;;;5069881;28;20042;-84
2021/10/13 05:31:36;;;;;;;5.65;0.90;;;9.70;99.90;;;;;;5070689;27;20036;-81
2021/10/13 05:34:02;;;;;;;9.05;1.10;;;9.70;99.90;;;;;;5080987;27;20043;-81
2021/10/13 05:36:28;;;;;;;6.95;0.93;;;9.70;99.90;;;;;;5069464;28;20118;-82
2021/10/13 05:38:54;;;;;;;5.47;0.90;;;9.70;99.90;;;;;;5083482;28;20039;-81
2021/10/13 05:41:19;;;;;;;4.28;0.82;;;9.70;99.90;;;;;;5087721;27;20213;-81
2021/10/13 05:43:45;;;;;;;4.03;0.88;;;9.70;99.90;;;;;;5060614;28;20040;-81
2021/10/13 05:46:11;;;;;;;4.80;0.77;;;9.60;99.90;;;;;;5107140;28;20080;-81
2021/10/13 05:48:37;;;;;;;4.30;1.00;;;9.60;99.90;;;;;;5120746;27;20040;-81
2021/10/13 05:51:02;;;;;;;5.53;1.05;;;9.60;99.90;;;;;;5071401;28;20108;-81
2021/10/13 05:53:29;;;;;;;5.47;0.80;;;9.50;99.90;;;;;;5071357;28;20039;-81
2021/10/13 05:55:55;;;;;;;6.28;0.80;;;9.50;99.90;;;;;;5075761;28;20044;-81
2021/10/13 05:58:23;;;;;;;4.00;0.77;;;9.40;99.90;;;;;;5083729;28;20089;-81
2021/10/13 06:00:49;;;;;;;4.90;0.90;;;9.40;99.90;;;;;;5084963;28;20474;-81
2021/10/13 06:03:15;;;;;;;3.42;0.80;;;9.40;99.90;;;;;;5106231;27;20051;-81
2021/10/13 06:05:40;;;;;;;6.97;0.70;;;9.30;99.90;;;;;;5084420;28;20043;-81
2021/10/13 06:08:06;;;;;;;7.38;1.50;;;9.30;99.90;;;;;;5097547;28;20032;-81
2021/10/13 06:10:32;;;;;;;7.35;1.05;;;9.30;99.90;;;;;;5118906;27;20086;-81
2021/10/13 06:12:58;;;;;;;3.50;0.70;;;9.30;99.90;;;;;;5097127;28;20132;-81
2021/10/13 06:15:24;;;;;;;7.50;0.88;;;9.30;99.90;;;;;;5069161;28;20044;-81
2021/10/13 06:17:50;;;;;;;6.22;1.27;;;9.20;99.90;;;;;;5074303;28;20111;-81
2021/10/13 06:20:16;;;;;;;9.80;0.90;;;9.30;99.90;;;;;;5068445;28;20487;-81
2021/10/13 06:22:41;;;;;;;7.60;0.70;;;9.30;99.90;;;;;;5083179;28;20040;-81
2021/10/13 06:25:08;;;;;;;8.85;0.90;;;9.20;99.90;;;;;;5070467;28;20035;-81
2021/10/13 06:27:34;;;;;;;4.90;1.00;;;9.20;99.90;;;;;;5088064;28;20074;-81
2021/10/13 06:30:00;;;;;;;7.35;1.10;;;9.20;99.90;;;;;;5087064;28;20039;-81
2021/10/13 06:32:25;;;;;;;3.78;0.82;;;9.20;99.90;;;;;;5084677;28;20051;-81
2021/10/13 06:34:51;;;;;;;8.98;1.33;;;9.10;99.90;;;;;;5085365;28;20042;-81
2021/10/13 06:37:17;;;;;;;5.70;0.95;;;9.10;99.90;;;;;;5104414;28;20122;-81
2021/10/13 06:39:43;;;;;;;4.90;0.80;;;9.10;99.90;;;;;;5090373;28;20036;-81
2021/10/13 06:42:08;;;;;;;6.43;0.90;;;9.20;99.90;;;;;;5107913;28;20502;-81
2021/10/13 06:44:34;;;;;;;4.00;1.05;;;9.20;99.90;;;;;;5122776;27;20031;-81
2021/10/13 06:47:00;;;;;;;11.02;1.10;;;9.20;99.90;;;;;;5123305;27;20112;-82
2021/10/13 06:49:26;;;;;;;9.00;1.15;;;9.30;99.90;;;;;;5089414;28;20028;-86
2021/10/13 06:51:51;;;;;;;6.72;1.00;;;9.30;99.90;;;;;;5088871;28;20612;-85
2021/10/13 06:54:17;;;;;;;9.23;2.08;;;9.30;99.90;;;;;;5090762;28;20039;-86
2021/10/13 06:56:43;;;;;;;6.28;1.10;;;9.40;99.90;;;;;;5090660;28;20402;-87
2021/10/13 06:59:08;;;;;;;11.20;1.30;;;9.40;99.90;;;;;;5069991;28;20060;-82
2021/10/13 07:01:34;;;;;;;8.70;1.35;;;9.40;99.90;;;;;;5086619;28;20112;-81
2021/10/13 07:04:00;;;;;;;12.27;1.67;;;9.50;99.90;;;;;;5132328;27;20036;-81
2021/10/13 07:06:27;;;;;;;9.80;1.38;;;9.50;99.90;;;;;;5090693;28;20407;-81
2021/10/13 07:08:52;;;;;;;8.55;1.25;;;9.50;99.90;;;;;;5141350;27;20055;-81
2021/10/13 07:11:21;;;;;;;13.35;1.50;;;9.60;99.90;;;;;;5105849;28;20380;-81
2021/10/13 07:13:47;;;;;;;7.82;1.40;;;9.60;99.90;;;;;;5139768;27;20047;-82
2021/10/13 07:16:13;;;;;;;12.63;1.50;;;9.60;99.90;;;;;;5088508;28;20503;-82
2021/10/13 07:18:39;;;;;;;9.40;1.45;;;9.70;99.90;;;;;;5087084;28;20050;-80
2021/10/13 07:21:05;;;;;;;11.43;1.33;;;9.70;99.90;;;;;;5121278;28;20040;-80
2021/10/13 07:23:31;;;;;;;6.30;1.52;;;9.70;99.90;;;;;;5087763;28;20040;-80
2021/10/13 07:25:57;;;;;;;6.47;1.20;;;9.80;99.90;;;;;;5086815;28;20410;-81
2021/10/13 07:28:25;;;;;;;13.30;1.35;;;9.80;99.90;;;;;;5105172;28;20043;-81
2021/10/13 07:30:51;;;;;;;8.90;1.70;;;9.80;99.90;;;;;;5124283;27;20168;-81
2021/10/13 07:33:17;;;;;;;9.35;1.10;;;9.90;99.90;;;;;;5095788;28;20046;-81
2021/10/13 07:35:42;;;;;;;6.35;1.10;;;9.90;99.90;;;;;;5123704;28;20047;-81
2021/10/13 07:38:13;;;;;;;5.25;1.02;;;10.00;99.90;;;;;;5105194;28;20474;-81
2021/10/13 07:40:39;;;;;;;5.65;1.30;;;10.10;99.90;;;;;;5084398;28;20036;-81
2021/10/13 07:43:05;;;;;;;7.70;1.50;;;10.20;99.90;;;;;;5088558;28;20067;-82
2021/10/13 07:45:31;;;;;;;8.45;1.48;;;10.20;99.90;;;;;;5087151;28;20067;-81
2021/10/13 07:47:57;;;;;;;10.45;1.90;;;10.30;99.90;;;;;;5110841;28;20040;-81
2021/10/13 07:50:23;;;;;;;6.05;0.95;;;10.30;99.90;;;;;;5093516;28;20051;-81
2021/10/13 07:52:49;;;;;;;6.15;0.93;;;10.30;99.90;;;;;;5093765;28;20058;-81
2021/10/13 07:55:15;;;;;;;9.02;1.20;;;10.30;99.90;;;;;;5093806;28;20126;-81
2021/10/13 07:57:40;;;;;;;5.05;0.98;;;10.20;99.90;;;;;;5074907;28;20043;-81
2021/10/13 08:00:07;;;;;;;7.50;1.02;;;10.20;99.90;;;;;;5127022;27;20155;-81
2021/10/13 08:02:33;;;;;;;5.40;0.80;;;10.30;99.90;;;;;;5110504;28;20486;-81
2021/10/13 08:04:59;;;;;;;6.97;0.90;;;10.30;99.90;;;;;;5128092;27;20051;-81
2021/10/13 08:07:25;;;;;;;7.18;0.80;;;10.30;99.90;;;;;;5145597;27;20039;-81
2021/10/13 08:09:51;;;;;;;4.53;0.68;;;10.30;99.90;;;;;;5110983;28;20429;-81
2021/10/13 08:12:16;;;;;;;3.72;0.60;;;10.30;99.90;;;;;;5127500;27;20082;-81
2021/10/13 08:14:42;;;;;;;10.95;1.85;;;10.30;99.90;;;;;;5110367;28;20043;-81
2021/10/13 08:17:10;;;;;;;10.45;1.10;;;10.40;99.90;;;;;;5126820;27;20055;-82
2021/10/13 08:19:37;;;;;;;5.25;0.50;;;10.40;99.90;;;;;;5145021;27;20051;-81
2021/10/13 08:22:03;;;;;;;6.05;0.73;;;10.40;99.90;;;;;;5110360;28;20418;-81
2021/10/13 08:24:29;;;;;;;9.70;1.02;;;10.50;99.90;;;;;;5145077;27;20058;-82
2021/10/13 08:26:55;;;;;;;9.32;0.73;;;10.50;99.90;;;;;;5110010;28;20043;-82
2021/10/13 08:29:20;;;;;;;5.10;1.15;;;10.50;99.90;;;;;;5127632;27;20217;-81
2021/10/13 08:31:46;;;;;;;8.00;1.10;;;10.60;99.90;;;;;;5109363;28;20753;-81
2021/10/13 08:34:12;;;;;;;8.43;0.90;;;10.60;99.90;;;;;;5108034;28;20555;-81
2021/10/13 08:36:37;;;;;;;6.13;0.93;;;10.70;99.90;;;;;;5118997;27;20077;-82
2021/10/13 08:39:03;;;;;;;6.57;0.75;;;10.70;99.90;;;;;;5053880;28;20487;-81
2021/10/13 08:41:29;;;;;;;5.75;1.00;;;10.70;99.90;;;;;;5053965;28;20036;-81
2021/10/13 08:43:54;;;;;;;7.88;0.82;;;10.80;99.90;;;;;;5070703;28;20113;-81
2021/10/13 08:46:20;;;;;;;3.10;0.70;;;10.90;99.90;;;;;;5104406;27;20039;-81
2021/10/13 08:48:46;;;;;;;8.23;1.05;;;10.90;99.90;;;;;;5089734;28;20040;-82
2021/10/13 08:51:12;;;;;;;12.80;0.70;;;11.00;99.90;;;;;;5093239;28;20036;-81
2021/10/13 08:53:37;;;;;;;7.07;0.70;;;11.00;99.90;;;;;;5075056;28;20083;-82
2021/10/13 08:56:03;;;;;;;2.90;0.65;;;11.00;99.90;;;;;;5075795;28;20046;-82
2021/10/13 08:58:29;;;;;;;5.88;1.17;;;11.10;99.90;;;;;;5075951;28;20047;-82
2021/10/13 09:01:04;;;;;;;10.23;0.90;;;11.20;99.90;;;;;;5109607;28;20392;-82
2021/10/13 09:03:34;;;;;;;4.43;0.80;;;11.20;99.90;;;;;;5108828;28;20056;-81
2021/10/13 09:06:23;;;;;;;12.25;1.52;;;11.20;99.90;;;;;;5126700;27;20040;-82
2021/10/13 09:09:12;;;;;;;3.88;0.93;;;11.30;99.90;;;;;;5143835;27;20040;-82
2021/10/13 09:11:44;;;;;;;4.63;1.17;;;11.40;99.90;;;;;;5143314;27;20052;-82
2021/10/13 09:14:15;;;;;;;7.00;1.48;;;11.40;99.90;;;;;;5126458;27;20521;-82
2021/10/13 09:16:52;;;;;;;8.60;0.90;;;11.50;99.90;;;;;;5144060;27;20048;-82
2021/10/13 09:19:19;;;;;;;4.88;0.80;;;11.60;99.90;;;;;;5126707;27;20375;-81
2021/10/13 09:21:59;;;;;;;7.70;0.93;;;11.60;99.90;;;;;;5126185;27;20127;-81
2021/10/13 09:24:27;;;;;;;8.05;0.80;;;11.70;99.90;;;;;;5109267;28;20051;-82
2021/10/13 09:26:54;;;;;;;5.25;0.60;;;11.80;99.90;;;;;;5092207;28;20138;-82
2021/10/13 09:29:21;;;;;;;4.15;0.57;;;11.90;99.90;;;;;;5126337;27;20078;-82
2021/10/13 09:31:55;;;;;;;6.50;0.95;;;11.90;99.90;;;;;;5143208;27;20047;-82
2021/10/13 09:34:21;;;;;;;4.35;0.80;;;;;;;;;;5142601;27;20040;-82
2021/10/13 09:36:58;;;;;;;6.30;0.80;;;12.10;99.90;;;;;;5109145;28;20126;-82
2021/10/13 09:39:24;;;;;;;1.98;0.60;;;12.20;99.90;;;;;;5108626;28;20083;-82
2021/10/13 09:42:10;;;;;;;6.50;1.17;;;12.30;99.90;;;;;;5143337;27;20043;-82
2021/10/13 09:44:56;;;;;;;4.00;0.70;;;12.50;99.90;;;;;;5125535;27;20047;-82
2021/10/13 09:47:34;;;;;;;4.28;0.80;;;12.60;99.90;;;;;;5108816;28;20077;-82
2021/10/13 09:50:06;;;;;;;2.92;0.50;;;12.80;99.90;;;;;;5109956;28;20042;-81
2021/10/13 09:52:31;;;;;;;4.83;0.50;;;12.90;99.90;;;;;;5091976;28;20048;-83
2021/10/13 09:55:01;;;;;;;2.30;0.50;;;13.00;99.90;;;;;;5103788;27;20799;-83
2021/10/13 09:57:30;;;;;;;6.80;0.85;;;13.00;99.90;;;;;;5116179;27;20158;-83
2021/10/13 09:59:58;;;;;;;5.85;0.88;;;13.00;99.90;;;;;;5115853;27;20116;-83
2021/10/13 10:02:31;;;;;;;6.55;0.70;;;13.00;99.90;;;;;;5102052;28;20521;-83
2021/10/13 10:05:04;;;;;;;3.28;0.65;;;12.90;99.90;;;;;;5099170;27;20035;-82
2021/10/13 10:07:30;;;;;;;3.15;0.65;;;12.80;99.90;;;;;;5119125;27;20039;-82
2021/10/13 10:10:08;;;;;;;4.95;0.63;;;12.70;99.90;;;;;;5121041;27;20070;-82
2021/10/13 10:13:02;;;;;;;5.18;0.93;;;12.70;99.90;;;;;;5094456;28;20048;-82
2021/10/13 10:15:47;;;;;;;2.88;0.50;;;12.60;99.90;;;;;;5126249;27;20044;-83
2021/10/13 10:18:31;;;;;;;1.80;0.43;;;12.60;99.90;;;;;;5123072;27;20641;-82
2021/10/13 10:21:13;;;;;;;2.45;0.47;;;12.60;99.90;;;;;;5091990;28;20417;-82
2021/10/13 10:23:40;;;;;;;4.75;0.80;;;12.70;99.90;;;;;;5090812;28;20135;-82
2021/10/13 10:26:24;;;;;;;7.78;1.10;;;12.70;99.90;;;;;;5122658;27;20118;-83
2021/10/13 10:28:50;;;;;;;4.70;1.13;;;12.70;99.90;;;;;;5107196;27;20039;-82
2021/10/13 10:31:30;;;;;;;10.23;1.45;;;12.90;99.90;;;;;;5102759;28;20051;-82
2021/10/13 10:34:05;;;;;;;5.70;0.88;;;13.00;99.90;;;;;;5106786;27;21745;-82
2021/10/13 10:36:54;;;;;;;4.90;0.60;;;13.10;99.90;;;;;;5110405;27;20102;-82
2021/10/13 10:39:20;;;;;;;6.00;0.70;;;13.10;99.90;;;;;;5104052;27;20043;-82
2021/10/13 10:41:52;;;;;;;4.22;0.70;;;13.00;99.90;;;;;;5101746;28;20053;-82
2021/10/13 10:44:37;;;;;;;6.03;1.10;;;13.00;99.90;;;;;;5093452;28;20071;-83
2021/10/13 10:47:06;;;;;;;5.90;0.80;;;13.00;99.90;;;;;;5110554;28;20039;-82
2021/10/13 10:49:47;;;;;;;5.30;1.08;;;13.00;99.90;;;;;;5117159;28;20039;-84
2021/10/13 10:52:14;;;;;;;6.93;0.80;;;13.10;99.90;;;;;;5105294;28;20043;-84
2021/10/13 10:54:49;;;;;;;4.93;0.95;;;13.20;99.90;;;;;;5138241;27;20039;-84
2021/10/13 10:57:45;;;;;;;5.82;0.90;;;13.30;99.90;;;;;;5113552;28;20047;-84
2021/10/13 11:00:38;;;;;;;12.60;1.25;;;13.50;99.90;;;;;;5109298;28;20051;-83
2021/10/13 11:03:25;;;;;;;4.65;1.00;;;13.60;99.90;;;;;;5109249;28;20051;-84
2021/10/13 11:05:53;;;;;;;6.82;0.90;;;13.60;99.90;;;;;;5092257;28;20487;-83
2021/10/13 11:08:20;;;;;;;4.25;0.70;;;13.60;99.90;;;;;;5106617;27;20039;-84
2021/10/13 11:10:45;;;;;;;6.20;1.42;;;13.60;99.90;;;;;;5092876;28;20095;-83
2021/10/13 11:13:11;;;;;;;11.48;0.80;;;13.50;99.90;;;;;;5119849;27;20040;-83
2021/10/13 11:15:39;;;;;;;5.00;1.10;;;13.50;99.90;;;;;;5099111;28;20104;-84
2021/10/13 11:18:15;;;;;;;6.80;0.93;;;13.50;99.90;;;;;;5116784;27;20078;-83
2021/10/13 11:20:41;;;;;;;8.23;1.25;;;13.40;99.90;;;;;;5096101;27;20073;-84
2021/10/13 11:23:08;;;;;;;6.55;1.05;;;13.40;99.90;;;;;;5108050;28;20079;-84
2021/10/13 11:25:35;;;;;;;7.20;1.33;;;13.30;99.90;;;;;;5120804;27;20095;-84
2021/10/13 11:28:08;;;;;;;8.48;1.10;;;13.20;99.90;;;;;;5101000;28;20082;-84
2021/10/13 11:30:41;;;;;;;8.18;1.08;;;13.20;99.90;;;;;;5127576;27;20043;-84
2021/10/13 11:33:13;;;;;;;5.97;1.10;;;13.20;99.90;;;;;;5110770;28;20047;-84
2021/10/13 11:35:39;;;;;;;10.20;1.60;;;13.20;99.90;;;;;;5121281;27;20050;-84
2021/10/13 11:38:14;;;;;;;8.25;1.65;;;13.30;99.90;;;;;;5117339;27;20043;-84
2021/10/13 11:40:40;;;;;;;11.70;1.52;;;13.40;99.90;;;;;;5109881;28;20045;-84
2021/10/13 11:43:08;;;;;;;5.55;1.27;;;13.50;99.90;;;;;;5077666;28;20043;-85
2021/10/13 11:45:34;;;;;;;7.30;1.15;;;13.50;99.90;;;;;;5093489;28;20039;-85
2021/10/13 11:48:02;;;;;;;8.32;1.02;;;13.40;99.90;;;;;;5094109;28;20067;-84
2021/10/13 11:50:33;;;;;;;4.97;1.20;;;13.40;99.90;;;;;;5111005;28;20188;-85
2021/10/13 11:53:00;;;;;;;6.78;1.45;;;13.40;99.90;;;;;;5110955;28;20509;-84
2021/10/13 11:55:32;;;;;;;9.23;1.42;;;13.40;99.90;;;;;;5094351;28;20112;-84
2021/10/13 11:58:01;;;;;;;6.90;1.35;;;13.50;99.90;;;;;;5110618;28;20097;-84
2021/10/13 12:00:30;;;;;;;10.25;1.17;;;13.50;99.90;;;;;;5110327;28;20069;-84
2021/10/13 12:03:01;;;;;;;8.43;1.40;;;13.40;99.90;;;;;;5110719;28;20047;-85
2021/10/13 12:05:51;;;;;;;8.45;1.25;;;13.40;99.90;;;;;;5115892;27;20406;-85
2021/10/13 12:08:33;;;;;;;11.98;1.35;;;13.30;99.90;;;;;;5109910;27;20036;-85
2021/10/13 12:11:06;;;;;;;13.23;1.75;;;13.30;99.90;;;;;;5117478;27;20066;-85
2021/10/13 12:13:35;;;;;;;11.15;1.40;;;13.20;99.90;;;;;;5110530;28;20544;-85
2021/10/13 12:16:06;;;;;;;13.27;1.73;;;13.20;99.90;;;;;;5113384;27;20485;-85
2021/10/13 12:18:35;;;;;;;10.43;1.50;;;13.10;99.90;;;;;;5094044;28;20503;-84
2021/10/13 12:21:08;;;;;;;7.70;1.23;;;13.10;99.90;;;;;;5109149;27;20482;-84
2021/10/13 12:23:41;;;;;;;6.50;0.95;;;13.10;99.90;;;;;;5091288;27;20645;-84
2021/10/13 12:26:15;;;;;;;9.60;1.60;;;13.10;99.90;;;;;;5086470;28;20027;-85
2021/10/13 12:28:41;;;;;;;9.25;1.90;;;13.10;99.90;;;;;;5094000;27;20450;-85
2021/10/13 12:31:22;;;;;;;10.95;1.42;;;13.10;99.90;;;;;;5072319;28;20117;-85
2021/10/13 12:34:05;;;;;;;13.23;2.00;;;13.20;99.90;;;;;;5122653;27;20054;-84
2021/10/13 12:36:37;;;;;;;9.70;1.15;;;13.20;99.90;;;;;;5109323;27;20035;-85
2021/10/13 12:39:17;;;;;;;9.90;2.50;;;13.30;99.90;;;;;;5096733;28;20066;-84
2021/10/13 12:41:47;;;;;;;8.63;1.52;;;13.40;99.90;;;;;;5125722;27;20098;-85
2021/10/13 12:44:13;;;;;;;9.20;1.50;;;13.40;99.90;;;;;;5108991;28;20047;-84
2021/10/13 12:46:39;;;;;;;12.07;1.00;;;13.40;99.90;;;;;;5092703;27;20035;-84
2021/10/13 12:49:14;;;;;;;3.58;0.73;;;13.50;99.90;;;;;;5097771;28;20039;-85
2021/10/13 12:51:50;;;;;;;6.75;1.00;;;13.50;99.90;;;;;;5125613;27;20082;-84
2021/10/13 12:54:15;;;;;;;9.82;1.30;;;13.50;99.90;;;;;;5121605;27;20081;-84
2021/10/13 12:56:41;;;;;;;10.43;1.05;;;13.40;99.90;;;;;;5084663;27;20042;-84
2021/10/13 12:59:07;;;;;;;7.30;1.05;;;13.50;99.90;;;;;;5115992;27;20054;-84
2021/10/13 13:01:32;;;;;;;6.13;1.00;;;13.40;99.90;;;;;;5126052;27;20055;-84